Time;durP1;ratioP1;P1;durP2;ratioP2;P2;SDS_P1;SDS_P2;PMS_P1;PMS_P2;Temp;Humidity;BMP_temperature;BMP_pressure;BME280_temperature;BME280_humidity;BME280_pressure;Samples;Min_cycle;Max_cycle;Signal;HPM_P1;HPM_P2
2023/09/17 00:01:41;;;;;;;4.83;3.70;;;;;;;;;;4991927;28;20211;-44
2023/09/17 00:04:09;;;;;;;4.13;3.73;;;;;;;;;;4982408;28;20223;-41
2023/09/17 00:06:36;;;;;;;4.37;3.97;;;;;;;;;;4992066;28;20639;-41
2023/09/17 00:09:03;;;;;;;4.03;3.47;;;;;;;;;;4992025;28;20281;-45
2023/09/17 00:11:30;;;;;;;6.00;3.77;;;;;;;;;;4986360;28;20270;-42
2023/09/17 00:13:58;;;;;;;3.87;3.50;;;;;;;;;;4992368;28;20214;-42
2023/09/17 00:16:31;;;;;;;5.07;3.60;;;;;;;;;;4991879;28;20211;-44
2023/09/17 00:18:59;;;;;;;3.60;3.30;;;;;;;;;;4988480;28;20219;-43
2023/09/17 00:21:26;;;;;;;4.00;3.60;;;;;;;;;;4992854;28;20294;-44
2023/09/17 00:23:53;;;;;;;13.47;4.03;;;;;;;;;;4992165;28;20220;-43
2023/09/17 00:26:20;;;;;;;3.97;3.53;;;;;;;;;;4987807;28;20295;-43
2023/09/17 00:28:48;;;;;;;6.03;4.57;;;;;;;;;;4991005;28;20287;-42
2023/09/17 00:31:15;;;;;;;4.10;3.80;;;;;;;;;;4991623;28;20214;-39
2023/09/17 00:33:42;;;;;;;3.90;3.60;;;;;;;;;;4985678;28;20205;-45
2023/09/17 00:36:10;;;;;;;4.47;4.00;;;;;;;;;;4991695;28;20200;-44
2023/09/17 00:38:38;;;;;;;4.40;3.97;;;;;;;;;;4991039;28;20207;-46
2023/09/17 00:41:05;;;;;;;4.43;4.00;;;;;;;;;;4985967;28;20231;-42
2023/09/17 00:43:32;;;;;;;4.63;3.77;;;;;;;;;;4990780;28;20702;-46
2023/09/17 00:45:59;;;;;;;4.07;3.70;;;;;;;;;;4991594;28;20663;-45
2023/09/17 00:48:27;;;;;;;4.03;3.73;;;;;;;;;;4986272;28;20208;-44
2023/09/17 00:50:55;;;;;;;5.83;4.30;;;;;;;;;;4976252;28;20230;-44
2023/09/17 00:53:24;;;;;;;6.50;4.03;;;;;;;;;;4991572;28;20207;-42
2023/09/17 00:55:51;;;;;;;3.57;3.27;;;;;;;;;;4987594;28;20214;-45
2023/09/17 00:58:20;;;;;;;5.43;4.27;;;;;;;;;;4990877;28;20202;-41
2023/09/17 01:00:47;;;;;;;5.00;4.23;;;;;;;;;;4984801;28;20358;-45
2023/09/17 01:03:14;;;;;;;4.73;4.30;;;;;;;;;;4988096;28;20218;-44
2023/09/17 01:05:43;;;;;;;4.37;3.83;;;;;;;;;;4989956;28;20526;-44
2023/09/17 01:08:10;;;;;;;3.87;3.57;;;;;;;;;;4989682;28;20208;-42
2023/09/17 01:10:40;;;;;;;4.10;3.70;;;;;;;;;;4986782;28;20232;-39
2023/09/17 01:13:08;;;;;;;4.90;3.57;;;;;;;;;;4993678;28;20672;-40
2023/09/17 01:15:35;;;;;;;4.33;3.93;;;;;;;;;;4987001;28;20207;-39
2023/09/17 01:18:02;;;;;;;3.97;3.57;;;;;;;;;;4993100;28;20209;-42
2023/09/17 01:20:33;;;;;;;4.00;3.60;;;;;;;;;;4989426;28;20250;-44
2023/09/17 01:23:03;;;;;;;4.47;3.47;;;;;;;;;;4984722;28;20217;-42
2023/09/17 01:25:40;;;;;;;3.90;3.60;;;;;;;;;;4987537;28;20226;-41
2023/09/17 01:28:11;;;;;;;3.83;3.53;;;;;;;;;;4990296;28;20265;-42
2023/09/17 01:30:40;;;;;;;4.07;3.60;;;;;;;;;;4990475;28;20628;-45
2023/09/17 01:33:09;;;;;;;4.07;3.67;;;;;;;;;;4990673;28;20309;-43
2023/09/17 01:35:41;;;;;;;4.43;4.03;;;;;;;;;;4979242;28;20215;-44
2023/09/17 01:38:12;;;;;;;4.70;4.30;;;;;;;;;;4990238;28;20237;-39
2023/09/17 01:40:40;;;;;;;4.47;4.07;;;;;;;;;;4984361;28;20230;-44
2023/09/17 01:43:10;;;;;;;4.70;4.10;;;;;;;;;;4989850;28;20212;-42
2023/09/17 01:45:37;;;;;;;4.17;3.70;;;;;;;;;;4990073;28;20234;-44
2023/09/17 01:48:05;;;;;;;6.43;3.80;;;;;;;;;;4984522;28;20205;-40
2023/09/17 01:50:33;;;;;;;4.67;3.70;;;;;;;;;;4975363;28;20240;-44
2023/09/17 01:53:01;;;;;;;4.33;3.93;;;;;;;;;;4990635;28;20206;-42
2023/09/17 01:55:29;;;;;;;3.57;3.27;;;;;;;;;;4979013;28;20201;-43
2023/09/17 01:57:56;;;;;;;4.10;3.70;;;;;;;;;;4988176;28;20208;-44
2023/09/17 02:00:26;;;;;;;4.37;3.97;;;;;;;;;;4989796;28;20230;-43
2023/09/17 02:02:54;;;;;;;4.67;4.27;;;;;;;;;;4989825;28;20270;-43
2023/09/17 02:05:24;;;;;;;6.13;4.30;;;;;;;;;;4981404;28;20237;-40
2023/09/17 02:07:51;;;;;;;4.70;4.03;;;;;;;;;;4989569;28;20221;-45
2023/09/17 02:10:20;;;;;;;6.03;4.30;;;;;;;;;;4984677;28;20235;-43
2023/09/17 02:12:47;;;;;;;4.53;4.13;;;;;;;;;;4986875;28;20711;-44
2023/09/17 02:15:15;;;;;;;4.53;4.10;;;;;;;;;;4989420;28;20202;-40
2023/09/17 02:17:44;;;;;;;4.63;3.70;;;;;;;;;;4989629;28;20216;-40
2023/09/17 02:20:11;;;;;;;4.10;3.70;;;;;;;;;;4983743;28;20227;-43
2023/09/17 02:22:39;;;;;;;4.67;3.80;;;;;;;;;;4981621;28;20493;-38
2023/09/17 02:25:06;;;;;;;4.73;3.97;;;;;;;;;;4983541;28;20311;-40
2023/09/17 02:27:34;;;;;;;5.47;3.97;;;;;;;;;;4991130;28;20221;-40
2023/09/17 02:30:01;;;;;;;5.10;4.23;;;;;;;;;;4989635;28;20325;-41
2023/09/17 02:32:28;;;;;;;4.53;4.07;;;;;;;;;;4990176;28;20213;-43
2023/09/17 02:34:57;;;;;;;3.87;3.20;;;;;;;;;;4984188;28;20563;-39
2023/09/17 02:37:24;;;;;;;5.33;4.00;;;;;;;;;;4979423;28;20204;-45
2023/09/17 02:39:51;;;;;;;6.23;4.03;;;;;;;;;;4983023;28;20720;-42
2023/09/17 02:42:19;;;;;;;4.33;4.03;;;;;;;;;;4982498;28;20264;-41
2023/09/17 02:44:46;;;;;;;5.03;4.10;;;;;;;;;;4988637;28;20242;-44
2023/09/17 02:47:14;;;;;;;4.40;4.00;;;;;;;;;;4986321;28;20221;-39
2023/09/17 02:49:42;;;;;;;3.80;3.50;;;;;;;;;;4980495;28;20268;-42
2023/09/17 02:52:10;;;;;;;4.73;3.67;;;;;;;;;;4989757;28;20270;-42
2023/09/17 02:54:37;;;;;;;4.90;4.33;;;;;;;;;;4984504;28;20214;-44
2023/09/17 02:57:05;;;;;;;4.47;4.07;;;;;;;;;;4987667;28;20213;-40
2023/09/17 02:59:35;;;;;;;4.50;4.10;;;;;;;;;;4989227;28;20230;-43
2023/09/17 03:02:03;;;;;;;5.33;4.67;;;;;;;;;;4982716;28;20221;-39
2023/09/17 03:04:30;;;;;;;4.13;3.60;;;;;;;;;;4980494;28;20226;-41
2023/09/17 03:06:58;;;;;;;5.07;4.30;;;;;;;;;;4988714;28;20229;-46
2023/09/17 03:09:27;;;;;;;3.67;3.37;;;;;;;;;;4985441;28;20256;-41
2023/09/17 03:11:54;;;;;;;3.67;3.37;;;;;;;;;;4985807;28;20449;-42
2023/09/17 03:14:21;;;;;;;5.40;4.23;;;;;;;;;;4990557;28;20206;-44
2023/09/17 03:16:48;;;;;;;4.13;3.70;;;;;;;;;;4990144;28;20210;-43
2023/09/17 03:19:15;;;;;;;5.97;4.43;;;;;;;;;;4986469;28;20230;-44
2023/09/17 03:21:42;;;;;;;4.80;3.70;;;;;;;;;;4983995;28;20218;-44
2023/09/17 03:24:10;;;;;;;4.37;3.97;;;;;;;;;;4988354;28;20260;-43
2023/09/17 03:26:39;;;;;;;6.43;3.97;;;;;;;;;;4983170;28;20218;-35
2023/09/17 03:29:07;;;;;;;5.27;4.33;;;;;;;;;;4992578;28;20233;-41
2023/09/17 03:31:34;;;;;;;4.20;3.80;;;;;;;;;;4993305;28;20240;-40
2023/09/17 03:34:01;;;;;;;4.67;3.93;;;;;;;;;;4983481;28;20235;-43
2023/09/17 03:36:29;;;;;;;4.83;4.10;;;;;;;;;;4991856;28;20206;-44
2023/09/17 03:38:56;;;;;;;5.50;4.47;;;;;;;;;;4991499;28;20300;-39
2023/09/17 03:41:23;;;;;;;4.53;4.13;;;;;;;;;;4985026;28;20210;-39
2023/09/17 03:43:52;;;;;;;5.80;4.43;;;;;;;;;;4992451;28;20400;-43
2023/09/17 03:46:19;;;;;;;4.63;4.23;;;;;;;;;;4992785;28;20320;-42
2023/09/17 03:48:47;;;;;;;4.50;4.10;;;;;;;;;;4980989;28;20221;-41
2023/09/17 03:51:14;;;;;;;5.47;4.53;;;;;;;;;;4992354;28;20230;-43
2023/09/17 03:53:41;;;;;;;4.90;4.40;;;;;;;;;;4992880;28;20222;-44
2023/09/17 03:56:08;;;;;;;4.60;4.20;;;;;;;;;;4986289;28;20208;-41
2023/09/17 03:58:35;;;;;;;3.60;3.30;;;;;;;;;;4989161;28;20211;-46
2023/09/17 04:01:06;;;;;;;4.03;3.63;;;;;;;;;;4992735;28;20677;-43
2023/09/17 04:03:33;;;;;;;4.53;3.97;;;;;;;;;;4992418;28;20202;-43
2023/09/17 04:06:00;;;;;;;4.27;3.90;;;;;;;;;;4979087;28;20775;-39
2023/09/17 04:08:30;;;;;;;5.70;4.03;;;;;;;;;;4992927;28;20229;-40
2023/09/17 04:10:57;;;;;;;4.67;3.80;;;;;;;;;;4982785;28;20230;-44
2023/09/17 04:13:24;;;;;;;4.27;3.93;;;;;;;;;;4992541;28;20225;-42
2023/09/17 04:15:52;;;;;;;4.40;3.67;;;;;;;;;;4993173;28;20299;-40
2023/09/17 04:18:20;;;;;;;4.50;4.10;;;;;;;;;;4992398;28;20213;-43
2023/09/17 04:20:48;;;;;;;5.20;3.93;;;;;;;;;;4983073;28;20235;-42
2023/09/17 04:23:16;;;;;;;4.27;3.80;;;;;;;;;;4988970;28;20297;-43
2023/09/17 04:25:43;;;;;;;4.10;3.70;;;;;;;;;;4985966;28;20328;-43
2023/09/17 04:28:11;;;;;;;4.47;4.07;;;;;;;;;;4986183;28;20205;-46
2023/09/17 04:30:38;;;;;;;6.10;4.07;;;;;;;;;;4987077;28;20589;-43
2023/09/17 04:33:05;;;;;;;4.80;4.10;;;;;;;;;;4987099;28;20308;-41
2023/09/17 04:35:34;;;;;;;4.87;4.03;;;;;;;;;;4984337;28;20208;-44
2023/09/17 04:38:01;;;;;;;4.73;3.87;;;;;;;;;;4991079;28;20209;-42
2023/09/17 04:40:28;;;;;;;6.33;3.90;;;;;;;;;;4984587;28;20321;-45
2023/09/17 04:42:55;;;;;;;4.87;4.00;;;;;;;;;;4991253;28;20243;-39
2023/09/17 04:45:33;;;;;;;5.33;3.73;;;;;;;;;;4991096;28;20305;-44
2023/09/17 04:48:00;;;;;;;5.40;4.33;;;;;;;;;;4987191;28;20772;-44
2023/09/17 04:50:28;;;;;;;4.50;4.10;;;;;;;;;;4986141;28;20229;-43
2023/09/17 04:52:57;;;;;;;6.63;4.40;;;;;;;;;;4987197;28;20221;-43
2023/09/17 04:55:24;;;;;;;4.67;4.10;;;;;;;;;;4984829;28;20243;-42
2023/09/17 04:57:52;;;;;;;4.30;3.90;;;;;;;;;;4990175;28;20297;-44
2023/09/17 05:00:20;;;;;;;4.07;3.67;;;;;;;;;;4982760;28;20230;-44
2023/09/17 05:02:47;;;;;;;4.27;3.87;;;;;;;;;;4982144;28;20264;-44
2023/09/17 05:05:17;;;;;;;6.00;4.17;;;;;;;;;;4983095;28;20244;-41
2023/09/17 05:07:44;;;;;;;3.73;3.43;;;;;;;;;;4987765;28;20225;-45
2023/09/17 05:10:13;;;;;;;4.43;4.03;;;;;;;;;;4984311;28;20232;-44
2023/09/17 05:12:45;;;;;;;4.70;4.30;;;;;;;;;;4989569;28;20214;-42
2023/09/17 05:15:13;;;;;;;4.37;3.97;;;;;;;;;;4993688;28;20198;-43
2023/09/17 05:17:42;;;;;;;4.37;3.73;;;;;;;;;;4993438;28;20199;-38
2023/09/17 05:20:12;;;;;;;3.87;3.53;;;;;;;;;;4987319;28;20262;-45
2023/09/17 05:22:52;;;;;;;4.13;3.80;;;;;;;;;;4993772;28;20212;-43
2023/09/17 05:25:23;;;;;;;4.67;4.07;;;;;;;;;;4991417;28;20256;-45
2023/09/17 05:27:51;;;;;;;4.97;4.33;;;;;;;;;;4983351;28;20270;-41
2023/09/17 05:30:19;;;;;;;4.30;3.90;;;;;;;;;;4993452;28;20309;-39
2023/09/17 05:32:55;;;;;;;4.93;4.07;;;;;;;;;;4986050;28;20214;-40
2023/09/17 05:35:23;;;;;;;5.13;4.40;;;;;;;;;;4978827;28;20217;-43
2023/09/17 05:37:51;;;;;;;3.87;3.50;;;;;;;;;;4991248;28;20215;-41
2023/09/17 05:40:29;;;;;;;4.43;4.03;;;;;;;;;;4982539;28;20322;-41
2023/09/17 05:43:04;;;;;;;4.97;3.63;;;;;;;;;;4992206;28;20208;-45
2023/09/17 05:45:31;;;;;;;6.50;3.97;;;;;;;;;;4988414;28;20225;-44
2023/09/17 05:47:58;;;;;;;4.53;3.90;;;;;;;;;;4989482;28;20218;-46
2023/09/17 05:50:25;;;;;;;4.30;3.90;;;;;;;;;;4989637;28;20233;-46
2023/09/17 05:52:52;;;;;;;4.87;4.37;;;;;;;;;;4992258;28;20282;-45
2023/09/17 05:55:20;;;;;;;7.03;3.83;;;;;;;;;;4988770;28;20217;-44
2023/09/17 05:57:48;;;;;;;3.97;3.67;;;;;;;;;;4989030;28;20216;-41
2023/09/17 06:00:16;;;;;;;4.30;3.73;;;;;;;;;;4992802;28;20348;-42
2023/09/17 06:02:44;;;;;;;4.13;3.73;;;;;;;;;;4990940;28;20213;-44
2023/09/17 06:05:12;;;;;;;4.33;3.90;;;;;;;;;;4988130;28;20230;-42
2023/09/17 06:07:39;;;;;;;6.07;3.50;;;;;;;;;;4991110;28;20309;-42
2023/09/17 06:10:07;;;;;;;5.73;3.93;;;;;;;;;;4981385;28;20733;-43
2023/09/17 06:12:34;;;;;;;4.60;3.87;;;;;;;;;;4987668;28;20578;-45
2023/09/17 06:15:02;;;;;;;5.83;5.20;;;;;;;;;;4991856;28;20259;-40
2023/09/17 06:17:30;;;;;;;4.40;4.00;;;;;;;;;;4992637;28;20236;-44
2023/09/17 06:19:57;;;;;;;4.30;3.90;;;;;;;;;;4981977;28;20222;-44
2023/09/17 06:22:24;;;;;;;6.03;4.27;;;;;;;;;;4990831;28;20297;-44
2023/09/17 06:24:51;;;;;;;4.20;3.80;;;;;;;;;;4987095;28;20209;-42
2023/09/17 06:27:21;;;;;;;4.20;3.80;;;;;;;;;;4990508;28;20212;-46
2023/09/17 06:29:55;;;;;;;4.37;3.97;;;;;;;;;;4992626;28;20227;-43
2023/09/17 06:32:23;;;;;;;3.90;3.60;;;;;;;;;;4994203;28;20545;-41
2023/09/17 06:34:51;;;;;;;3.93;3.53;;;;;;;;;;4988871;28;20297;-40
2023/09/17 06:37:18;;;;;;;4.73;3.83;;;;;;;;;;4985150;28;20653;-43
2023/09/17 06:39:45;;;;;;;4.07;3.77;;;;;;;;;;4983418;28;20230;-39
2023/09/17 06:42:12;;;;;;;5.07;3.93;;;;;;;;;;4987124;28;20233;-44
2023/09/17 06:44:39;;;;;;;4.83;4.43;;;;;;;;;;4991903;28;20563;-45
2023/09/17 06:47:06;;;;;;;5.03;4.33;;;;;;;;;;4990733;28;20233;-43
2023/09/17 06:49:35;;;;;;;6.70;4.60;;;;;;;;;;4986620;28;20325;-42
2023/09/17 06:52:02;;;;;;;4.10;3.73;;;;;;;;;;4990381;28;20211;-42
2023/09/17 06:54:29;;;;;;;6.23;4.53;;;;;;;;;;4988541;28;20715;-43
2023/09/17 06:56:56;;;;;;;5.20;4.70;;;;;;;;;;4986719;28;20222;-41
2023/09/17 06:59:24;;;;;;;5.13;4.63;;;;;;;;;;4991764;28;20580;-41
2023/09/17 07:01:51;;;;;;;5.77;4.10;;;;;;;;;;4991498;28;20711;-41
2023/09/17 07:04:18;;;;;;;4.93;4.47;;;;;;;;;;4991056;28;20232;-43
2023/09/17 07:06:47;;;;;;;5.43;4.93;;;;;;;;;;4988438;28;20234;-39
2023/09/17 07:09:14;;;;;;;4.80;4.40;;;;;;;;;;4991844;28;20221;-43
2023/09/17 07:11:41;;;;;;;5.97;5.33;;;;;;;;;;4987856;28;20206;-43
2023/09/17 07:14:10;;;;;;;6.73;5.67;;;;;;;;;;4993788;28;20217;-45
2023/09/17 07:16:37;;;;;;;7.60;5.90;;;;;;;;;;4995003;28;20210;-40
2023/09/17 07:19:05;;;;;;;5.57;5.07;;;;;;;;;;4995413;28;20234;-40
2023/09/17 07:21:32;;;;;;;6.10;5.17;;;;;;;;;;4987867;28;20213;-41
2023/09/17 07:24:01;;;;;;;6.70;5.93;;;;;;;;;;4996446;28;20217;-43
2023/09/17 07:26:29;;;;;;;6.60;5.90;;;;;;;;;;4988276;28;20229;-43
2023/09/17 07:28:56;;;;;;;5.73;5.00;;;;;;;;;;4993078;28;20214;-46
2023/09/17 07:31:23;;;;;;;6.43;5.47;;;;;;;;;;4996084;28;20219;-39
2023/09/17 07:33:50;;;;;;;6.87;5.90;;;;;;;;;;4987285;28;20203;-46
2023/09/17 07:36:17;;;;;;;6.53;5.50;;;;;;;;;;4987966;28;20203;-43
2023/09/17 07:38:45;;;;;;;6.67;5.93;;;;;;;;;;4995551;28;20206;-43
2023/09/17 07:41:14;;;;;;;8.47;5.90;;;;;;;;;;4986317;28;20213;-45
2023/09/17 07:43:42;;;;;;;7.97;6.33;;;;;;;;;;4991746;28;20203;-42
2023/09/17 07:46:13;;;;;;;4.63;4.23;;;;;;;;;;4975836;28;20230;-43
2023/09/17 07:48:40;;;;;;;6.17;5.57;;;;;;;;;;4974441;28;20576;-42
2023/09/17 07:51:07;;;;;;;6.53;5.13;;;;;;;;;;4976616;28;20215;-43
2023/09/17 07:53:34;;;;;;;5.70;5.20;;;;;;;;;;4976236;28;20227;-44
2023/09/17 07:56:03;;;;;;;6.50;5.53;;;;;;;;;;4972729;28;20219;-41
2023/09/17 07:58:31;;;;;;;5.80;5.30;;;;;;;;;;4975719;28;20291;-40
2023/09/17 08:00:58;;;;;;;5.70;5.20;;;;;;;;;;4975567;28;20332;-41
2023/09/17 08:03:25;;;;;;;6.47;5.67;;;;;;;;;;4974572;28;20217;-42
2023/09/17 08:05:53;;;;;;;7.37;5.47;;;;;;;;;;4975482;28;20228;-38
2023/09/17 08:08:21;;;;;;;6.30;5.67;;;;;;;;;;4975566;28;20210;-44
2023/09/17 08:10:48;;;;;;;5.37;4.87;;;;;;;;;;4965720;28;20243;-43
2023/09/17 08:13:16;;;;;;;6.00;5.27;;;;;;;;;;4973728;28;20208;-44
2023/09/17 08:15:44;;;;;;;6.57;5.30;;;;;;;;;;4971896;28;20208;-41
2023/09/17 08:18:11;;;;;;;5.53;5.03;;;;;;;;;;4972407;28;20307;-43
2023/09/17 08:20:39;;;;;;;5.53;5.03;;;;;;;;;;4973797;28;20312;-43
2023/09/17 08:23:06;;;;;;;6.43;5.13;;;;;;;;;;4973780;28;20295;-43
2023/09/17 08:25:34;;;;;;;7.03;5.80;;;;;;;;;;4966118;28;20204;-46
2023/09/17 08:28:02;;;;;;;5.07;4.57;;;;;;;;;;4974698;28;20291;-42
2023/09/17 08:30:29;;;;;;;7.93;5.57;;;;;;;;;;4974041;28;20240;-40
2023/09/17 08:33:01;;;;;;;7.97;4.90;;;;;;;;;;4972582;28;20209;-45
2023/09/17 08:35:28;;;;;;;5.43;4.97;;;;;;;;;;4974266;28;20303;-42
2023/09/17 08:37:55;;;;;;;6.47;4.40;;;;;;;;;;4971192;28;20209;-43
2023/09/17 08:40:25;;;;;;;5.88;5.32;;;;;;;;;;4966921;28;20224;-42
2023/09/17 08:42:52;;;;;;;4.80;4.40;;;;;;;;;;4969981;28;20215;-43
2023/09/17 08:45:20;;;;;;;4.45;4.05;;;;;;;;;;4985124;28;20744;-44
2023/09/17 08:47:47;;;;;;;4.63;4.22;;;;;;;;;;4990623;28;20292;-44
2023/09/17 08:50:16;;;;;;;4.95;4.07;;;;;;;;;;4985257;28;20330;-41
2023/09/17 08:52:44;;;;;;;4.97;4.47;;;;;;;;;;4993536;28;20419;-38
2023/09/17 08:55:11;;;;;;;4.47;4.10;;;;;;;;;;4988590;28;20216;-44
2023/09/17 08:57:39;;;;;;;4.28;3.90;;;;;;;;;;4988193;28;20211;-45
2023/09/17 09:00:09;;;;;;;3.78;3.47;;;;;;;;;;4992645;28;20316;-42
2023/09/17 09:02:40;;;;;;;4.20;3.80;;;;;;;;;;4989873;28;20214;-45
2023/09/17 09:05:08;;;;;;;4.20;3.80;;;;;;;;;;4986072;28;20574;-45
2023/09/17 09:07:37;;;;;;;4.57;3.90;;;;;;;;;;4993420;28;20233;-46
2023/09/17 09:10:04;;;;;;;5.07;4.25;;;;;;;;;;4983939;28;20221;-40
2023/09/17 09:12:31;;;;;;;4.25;3.28;;;;;;;;;;4993787;28;20243;-45
2023/09/17 09:14:59;;;;;;;3.78;3.47;;;;;;;;;;4993035;28;20216;-46
2023/09/17 09:17:27;;;;;;;5.55;3.53;;;;;;;;;;4993451;28;20297;-43
2023/09/17 09:19:55;;;;;;;4.10;3.70;;;;;;;;;;4987443;28;20234;-43
2023/09/17 09:22:22;;;;;;;3.90;3.58;;;;;;;;;;4986722;28;20203;-41
2023/09/17 09:24:51;;;;;;;4.22;3.83;;;;;;;;;;4989968;28;20218;-43
2023/09/17 09:27:18;;;;;;;3.60;3.28;;;;;;;;;;4981653;28;20222;-41
2023/09/17 09:29:45;;;;;;;3.90;3.60;;;;;;;;;;4993033;28;20226;-45
2023/09/17 09:32:13;;;;;;;4.25;3.78;;;;;;;;;;4992637;28;20238;-44
2023/09/17 09:34:41;;;;;;;6.95;3.78;;;;;;;;;;4987569;28;20211;-45
2023/09/17 09:37:08;;;;;;;4.57;3.50;;;;;;;;;;4987828;28;20246;-43
2023/09/17 09:39:36;;;;;;;3.35;3.03;;;;;;;;;;4984295;28;20237;-43
2023/09/17 09:42:05;;;;;;;5.32;3.30;;;;;;;;;;4983751;28;20215;-46
2023/09/17 09:44:34;;;;;;;3.53;3.22;;;;;;;;;;4993105;28;20215;-43
2023/09/17 09:47:03;;;;;;;4.03;3.42;;;;;;;;;;4992425;28;20242;-45
2023/09/17 09:49:30;;;;;;;4.07;3.00;;;;;;;;;;4984113;28;20236;-42
2023/09/17 09:51:59;;;;;;;5.07;3.20;;;;;;;;;;4989896;28;20312;-46
2023/09/17 09:54:27;;;;;;;3.17;2.97;;;;;;;;;;4989143;28;20331;-41
2023/09/17 09:56:54;;;;;;;3.83;3.20;;;;;;;;;;4983446;28;20206;-46
2023/09/17 09:59:23;;;;;;;3.35;2.90;;;;;;;;;;4991251;28;20337;-41
2023/09/17 10:01:50;;;;;;;5.88;2.97;;;;;;;;;;4992711;28;20288;-42
2023/09/17 10:04:19;;;;;;;3.05;2.58;;;;;;;;;;4988346;28;20211;-42
2023/09/17 10:06:47;;;;;;;4.15;2.30;;;;;;;;;;4986801;28;20229;-44
2023/09/17 10:09:14;;;;;;;3.42;2.55;;;;;;;;;;4989859;28;20273;-42
2023/09/17 10:11:41;;;;;;;5.70;2.60;;;;;;;;;;4978648;28;20225;-44
2023/09/17 10:14:09;;;;;;;5.63;2.20;;;;;;;;;;4992259;28;20210;-45
2023/09/17 10:16:38;;;;;;;3.60;2.20;;;;;;;;;;4992490;28;20205;-41
2023/09/17 10:19:06;;;;;;;1.92;1.70;;;;;;;;;;4971368;28;20314;-43
2023/09/17 10:21:37;;;;;;;3.28;1.73;;;;;;;;;;4993810;28;20208;-46
2023/09/17 10:24:04;;;;;;;4.43;2.00;;;;;;;;;;4992905;28;20213;-46
2023/09/17 10:26:35;;;;;;;4.70;2.15;;;;;;;;;;4979693;28;20305;-41
2023/09/17 10:29:03;;;;;;;2.67;1.95;;;;;;;;;;4989313;28;20245;-43
2023/09/17 10:31:31;;;;;;;4.90;2.05;;;;;;;;;;4992356;28;20218;-38
2023/09/17 10:34:00;;;;;;;4.30;2.13;;;;;;;;;;4989511;28;20294;-43
2023/09/17 10:36:28;;;;;;;6.43;2.38;;;;;;;;;;4991671;28;20203;-42
2023/09/17 10:38:58;;;;;;;2.30;2.10;;;;;;;;;;4992284;28;20225;-44
2023/09/17 10:41:27;;;;;;;6.38;2.30;;;;;;;;;;4983839;28;20630;-38
2023/09/17 10:43:55;;;;;;;4.25;1.75;;;;;;;;;;4991792;28;20585;-38
2023/09/17 10:46:23;;;;;;;4.90;2.08;;;;;;;;;;4991978;28;20209;-44
2023/09/17 10:48:53;;;;;;;4.45;1.77;;;;;;;;;;4991038;28;20211;-39
2023/09/17 10:51:21;;;;;;;6.00;2.05;;;;;;;;;;4988813;28;20216;-43
2023/09/17 10:53:48;;;;;;;3.97;1.70;;;;;;;;;;4991951;28;20675;-43
2023/09/17 10:56:16;;;;;;;4.72;1.92;;;;;;;;;;4986055;28;20206;-43
2023/09/17 10:58:44;;;;;;;3.83;1.95;;;;;;;;;;4988798;28;20211;-43
2023/09/17 11:01:13;;;;;;;3.50;1.88;;;;;;;;;;4991965;28;20210;-40
2023/09/17 11:03:42;;;;;;;4.80;2.25;;;;;;;;;;4985103;28;20211;-42
2023/09/17 11:06:16;;;;;;;5.93;1.75;;;;;;;;;;4983365;28;20212;-46
2023/09/17 11:08:45;;;;;;;4.13;1.98;;;;;;;;;;4992054;28;20251;-45
2023/09/17 11:11:14;;;;;;;5.53;1.80;;;;;;;;;;4978217;28;20214;-42
2023/09/17 11:13:41;;;;;;;3.25;1.88;;;;;;;;;;4987338;28;20205;-40
2023/09/17 11:16:08;;;;;;;3.45;1.70;;;;;;;;;;4991317;28;20252;-42
2023/09/17 11:18:35;;;;;;;1.85;1.70;;;;;;;;;;4987619;28;20206;-44
2023/09/17 11:21:06;;;;;;;4.15;1.75;;;;;;;;;;4987631;28;20236;-46
2023/09/17 11:23:37;;;;;;;2.40;1.52;;;;;;;;;;4987897;28;20245;-43
2023/09/17 11:26:05;;;;;;;4.63;1.88;;;;;;;;;;4982212;28;20241;-44
2023/09/17 11:28:36;;;;;;;4.68;1.92;;;;;;;;;;4984082;28;20224;-41
2023/09/17 11:31:04;;;;;;;4.00;2.00;;;;;;;;;;4992535;28;20238;-42
2023/09/17 11:33:32;;;;;;;4.55;1.85;;;;;;;;;;4976801;28;20293;-45
2023/09/17 11:36:01;;;;;;;3.83;2.25;;;;;;;;;;4988450;28;20219;-38
2023/09/17 11:38:29;;;;;;;3.78;1.70;;;;;;;;;;4989576;28;20249;-46
2023/09/17 11:41:03;;;;;;;4.00;1.77;;;;;;;;;;4981890;28;20276;-40
2023/09/17 11:43:33;;;;;;;4.38;1.92;;;;;;;;;;4989781;28;20289;-40
2023/09/17 11:46:04;;;;;;;2.85;1.55;;;;;;;;;;4993208;28;20304;-45
2023/09/17 11:48:32;;;;;;;3.10;1.60;;;;;;;;;;4980025;28;20232;-42
2023/09/17 11:51:22;;;;;;;3.83;2.00;;;;;;;;;;4991220;28;20234;-43
2023/09/17 11:53:50;;;;;;;3.42;1.92;;;;;;;;;;4983168;28;20276;-46
2023/09/17 11:56:17;;;;;;;1.90;1.63;;;;;;;;;;4986060;28;20203;-41
2023/09/17 11:58:46;;;;;;;7.50;2.00;;;;;;;;;;4993292;28;20211;-44
2023/09/17 12:01:17;;;;;;;4.03;1.92;;;;;;;;;;4990299;28;20206;-39
2023/09/17 12:03:44;;;;;;;4.78;1.85;;;;;;;;;;4989786;28;20205;-43
2023/09/17 12:06:11;;;;;;;3.53;1.50;;;;;;;;;;4993344;28;20301;-43
2023/09/17 12:08:38;;;;;;;3.53;1.75;;;;;;;;;;4992724;28;20333;-41
2023/09/17 12:11:11;;;;;;;3.88;1.95;;;;;;;;;;4989480;28;20238;-42
2023/09/17 12:13:38;;;;;;;2.90;1.50;;;;;;;;;;4990902;28;20214;-41
2023/09/17 12:16:07;;;;;;;5.13;1.90;;;;;;;;;;4991994;28;20207;-44
2023/09/17 12:18:34;;;;;;;4.00;1.80;;;;;;;;;;4981928;28;20213;-42
2023/09/17 12:21:07;;;;;;;2.72;1.60;;;;;;;;;;4984506;28;20222;-41
2023/09/17 12:23:54;;;;;;;3.63;1.83;;;;;;;;;;4986525;28;20288;-42
2023/09/17 12:26:36;;;;;;;3.85;1.77;;;;;;;;;;4979763;28;20785;-40
2023/09/17 12:29:09;;;;;;;5.22;1.70;;;;;;;;;;4990412;28;20238;-42
2023/09/17 12:31:38;;;;;;;4.68;1.70;;;;;;;;;;4994410;28;20209;-43
2023/09/17 12:34:05;;;;;;;3.20;1.73;;;;;;;;;;4993772;28;20245;-42
2023/09/17 12:36:32;;;;;;;3.85;2.05;;;;;;;;;;4986245;28;20281;-45
2023/09/17 12:39:00;;;;;;;3.40;1.58;;;;;;;;;;4989305;28;20277;-39
2023/09/17 12:41:27;;;;;;;5.13;1.90;;;;;;;;;;4987402;28;20211;-41
2023/09/17 12:43:54;;;;;;;3.60;1.60;;;;;;;;;;4989597;28;20210;-41
2023/09/17 12:46:22;;;;;;;3.17;1.90;;;;;;;;;;4993676;28;20208;-41
2023/09/17 12:48:51;;;;;;;4.78;1.60;;;;;;;;;;4994094;28;20234;-37
2023/09/17 12:51:19;;;;;;;5.85;1.70;;;;;;;;;;4993144;28;20294;-41
2023/09/17 12:54:02;;;;;;;4.18;1.80;;;;;;;;;;4992279;28;20401;-43
2023/09/17 12:56:30;;;;;;;4.28;1.80;;;;;;;;;;4982106;28;20222;-41
2023/09/17 12:58:58;;;;;;;2.92;1.38;;;;;;;;;;4991840;28;20207;-44
2023/09/17 13:01:25;;;;;;;2.60;1.42;;;;;;;;;;4993155;28;20208;-44
2023/09/17 13:03:55;;;;;;;2.03;1.65;;;;;;;;;;4989322;28;20221;-42
2023/09/17 13:06:23;;;;;;;2.47;1.60;;;;;;;;;;4990888;28;20214;-40
2023/09/17 13:08:51;;;;;;;2.72;1.50;;;;;;;;;;4993817;28;20229;-41
2023/09/17 13:11:18;;;;;;;2.22;1.77;;;;;;;;;;4985281;28;20210;-41
2023/09/17 13:13:46;;;;;;;4.05;2.15;;;;;;;;;;4992529;28;20211;-43
2023/09/17 13:16:13;;;;;;;5.18;1.88;;;;;;;;;;4994139;28;20219;-44
2023/09/17 13:18:41;;;;;;;4.03;1.98;;;;;;;;;;4994078;28;20214;-40
2023/09/17 13:21:10;;;;;;;3.17;1.60;;;;;;;;;;4986427;28;20213;-40
2023/09/17 13:23:38;;;;;;;3.55;1.63;;;;;;;;;;4985628;28;20211;-40
2023/09/17 13:26:05;;;;;;;3.10;1.90;;;;;;;;;;4985951;28;20219;-44
2023/09/17 13:28:33;;;;;;;3.20;1.60;;;;;;;;;;4985926;28;20942;-40
2023/09/17 13:31:01;;;;;;;4.50;1.60;;;;;;;;;;4993580;28;20240;-40
2023/09/17 13:33:28;;;;;;;3.15;1.90;;;;;;;;;;4988879;28;20222;-41
2023/09/17 13:35:55;;;;;;;4.88;1.65;;;;;;;;;;4992085;28;20215;-44
2023/09/17 13:38:24;;;;;;;4.38;1.80;;;;;;;;;;4992466;28;20298;-40
2023/09/17 13:40:52;;;;;;;2.75;1.40;;;;;;;;;;4982230;28;20318;-41
2023/09/17 13:43:20;;;;;;;1.73;1.60;;;;;;;;;;4990162;28;20214;-42
2023/09/17 13:45:51;;;;;;;2.78;1.65;;;;;;;;;;4992875;28;20219;-40
2023/09/17 13:48:18;;;;;;;4.38;1.83;;;;;;;;;;4988959;28;20270;-44
2023/09/17 13:50:46;;;;;;;2.50;1.65;;;;;;;;;;4992163;28;20316;-42
2023/09/17 13:53:13;;;;;;;5.70;1.58;;;;;;;;;;4989182;28;20213;-44
2023/09/17 13:55:42;;;;;;;3.03;1.70;;;;;;;;;;4987683;28;20219;-39
2023/09/17 13:58:10;;;;;;;3.33;1.67;;;;;;;;;;4990625;28;20294;-43
2023/09/17 14:00:37;;;;;;;2.25;1.50;;;;;;;;;;4987907;28;20298;-42
2023/09/17 14:03:05;;;;;;;2.15;1.50;;;;;;;;;;4985119;28;20236;-41
2023/09/17 14:05:32;;;;;;;3.63;1.60;;;;;;;;;;4984367;28;20217;-43
2023/09/17 14:07:59;;;;;;;2.42;1.30;;;;;;;;;;4992019;28;20230;-39
2023/09/17 14:10:27;;;;;;;3.78;1.42;;;;;;;;;;4981208;28;20231;-43
2023/09/17 14:12:55;;;;;;;6.80;1.60;;;;;;;;;;4985651;28;20210;-42
2023/09/17 14:15:22;;;;;;;3.55;1.63;;;;;;;;;;4988623;28;20203;-39
2023/09/17 14:17:50;;;;;;;2.88;1.33;;;;;;;;;;4991029;28;20289;-45
2023/09/17 14:20:17;;;;;;;3.50;1.92;;;;;;;;;;4982315;28;20254;-42
2023/09/17 14:22:44;;;;;;;4.38;1.60;;;;;;;;;;4983992;28;20258;-41
2023/09/17 14:25:11;;;;;;;4.50;1.65;;;;;;;;;;4985891;28;20302;-42
2023/09/17 14:27:38;;;;;;;2.25;1.45;;;;;;;;;;4981530;28;20817;-41
2023/09/17 14:30:11;;;;;;;3.83;1.60;;;;;;;;;;4990941;28;20227;-43
2023/09/17 14:32:39;;;;;;;1.63;1.50;;;;;;;;;;4988923;28;20217;-42
2023/09/17 14:35:07;;;;;;;2.55;1.25;;;;;;;;;;4987059;28;20261;-41
2023/09/17 14:37:34;;;;;;;4.00;1.30;;;;;;;;;;4988097;28;20382;-41
2023/09/17 14:40:01;;;;;;;3.60;1.48;;;;;;;;;;4983326;28;20231;-44
2023/09/17 14:42:28;;;;;;;4.50;1.30;;;;;;;;;;4985946;28;20241;-42
2023/09/17 14:44:56;;;;;;;2.13;1.23;;;;;;;;;;4991967;28;20297;-42
2023/09/17 14:47:24;;;;;;;1.90;1.25;;;;;;;;;;4991740;28;20628;-42
2023/09/17 14:49:51;;;;;;;3.53;1.40;;;;;;;;;;4988596;28;20242;-39